Terminal Aerodrome Forecast
Issued by NWS

Home | Current Version | Previous Version | Text Only | Print | Product List | Glossary On
Versions: 1 2 3 4 5 6 7 8 9 10 11 12 13 14 15 16
000
FTUS44 KCRP 300500
TAFALI
TAF
KALI 300529Z 3006/3106 16010KT P6SM FEW015
     FM300900 17005KT 4SM BR BKN008
      TEMPO 3010/3013 2SM BR OVC005
     FM301400 18008KT P6SM BKN012 BKN025
     FM301600 17014G20KT P6SM SCT025 BKN250
      TEMPO 3016/3018 BKN025
     FM302100 14014G20KT P6SM SCT035 BKN200
     FM310100 15008KT P6SM SCT012 BKN200=

USA.gov is the U.S. government's official web portal to all federal, state and local government web resources and services.